Portada
METAR-TAF:

METAR-TAF

Aeropuertos :

Aeropuerto Internacional de Yaoundé Nsimalen

Yaundé, Camerún

latitud: 03-50N, longitud: 011-31E, altitud: 751 m

Observación

El informe se hizo hace 55 minutos, a las 01:00 UTC
Temperatura 22°C
Humedad 100%
Presión 1015 hPa
Visibilidad: 8000 m
Cielo nuboso a una altura de 600 ft

METAR: FKYS 250100Z /////KT 8000 BKN006 22/22 Q1015 NOSIG

Hora: 02:55 (01:55 UTC)

Pronóstico

El informe se hizo hace 2 horas y 55 minutos, a las 23:00 UTC
Pronóstico válido del 25 a las 00 UTC al 25 a las 24 UTC
Viento 3 kt con dirección variable
Visibilidad: 8000 m
Escasas nubes a una altura de 300 ft
Cielo nuboso a una altura de 600 ft
Temporalmente
del 25 a las 03 UTC al 25 a las 07 UTC
Visibilidad: 2500 m
neblina
Evolucionando progresivamente
del 25 a las 08 UTC al 25 a las 10 UTC
Cielo nuboso a una altura de 1600 ft

TAF: FKYS 242300Z 2500/2524 VRB03KT 8000 FEW003 BKN006 TEMPO 2503/2507 2500 BR BECMG 2508/2510 BKN016

Observaciones y pronósticos meteorológicos de más de 4000 aeropuertos (mensajes METAR y TAF).

Los puntos amarillos y rojos representan las estaciones disponibles.

Ponga el ratón en el punto deseado para ver el nombre de la estación.

Haga clic para ver las observaciones y los pronósticos meteorológicos.

Para cambiar el mapa : haga clic en los botones verdes con una cruz de color negro para hacer un zoom, en el botón verde con un guión para alejar o en las flechas verdes para mapas adyacentes.


METAR-TAF: